Smithville, Pennsylvania
Current Conditions -  °F | °C
As of 5:53 PM on Thursday 27 Nov 2014 (Local Time) from KLNS Reporting Station
Overcast Overcast  
Wind Chill: 28°   Ceiling: 4800
Heat Index: 33°   Visibility: 10mi
Dew Point: 27°   Wind: 6mph
Humidity: 78%   Direction: 300°WNW
Pressure: 30.08"   Gusts: NA
Location:  39.9111°N, 76.2285°W
Report Text: KLNS 272253Z 30005KT 10SM SCT037 BKN048 OVC060 01/M03 A3008 RMK AO2 SLP188 T00061028
Loading
Personal Weather Stations






























Interactive Weather Map New forecast layout! Learn more

10-Day Weather Forecast

Advertisements
Track Severe Weather on mobile